sensor_id;sensor_type;location;lat;lon;timestamp;pressure;altitude;pressure_sealevel;temperature;humidity
22605;BME280;11469;49.024;8.246;2023-12-20T00:00:56;100591.16;;;4.74;100.00
22605;BME280;11469;49.024;8.246;2023-12-20T00:03:22;100590.53;;;4.77;100.00
22605;BME280;11469;49.024;8.246;2023-12-20T00:05:49;100587.56;;;4.74;100.00
22605;BME280;11469;49.024;8.246;2023-12-20T00:08:14;100591.03;;;4.79;100.00
22605;BME280;11469;49.024;8.246;2023-12-20T00:10:40;100588.69;;;4.73;100.00
22605;BME280;11469;49.024;8.246;2023-12-20T00:13:05;100580.38;;;4.73;100.00
22605;BME280;11469;49.024;8.246;2023-12-20T00:15:32;100584.31;;;4.72;100.00
22605;BME280;11469;49.024;8.246;2023-12-20T00:17:58;100581.53;;;4.72;100.00
22605;BME280;11469;49.024;8.246;2023-12-20T00:20:23;100586.75;;;4.73;100.00
22605;BME280;11469;49.024;8.246;2023-12-20T00:22:48;100583.00;;;4.78;100.00
22605;BME280;11469;49.024;8.246;2023-12-20T00:25:14;100570.44;;;4.80;100.00
22605;BME280;11469;49.024;8.246;2023-12-20T00:27:39;100565.22;;;4.79;100.00
22605;BME280;11469;49.024;8.246;2023-12-20T00:30:05;100571.09;;;4.77;100.00
22605;BME280;11469;49.024;8.246;2023-12-20T00:32:31;100579.91;;;4.79;100.00
22605;BME280;11469;49.024;8.246;2023-12-20T00:34:56;100585.78;;;4.78;100.00
22605;BME280;11469;49.024;8.246;2023-12-20T00:37:21;100587.94;;;4.81;100.00
22605;BME280;11469;49.024;8.246;2023-12-20T00:39:47;100587.94;;;4.81;100.00
22605;BME280;11469;49.024;8.246;2023-12-20T00:42:13;100582.38;;;4.81;100.00
22605;BME280;11469;49.024;8.246;2023-12-20T00:44:38;100587.94;;;4.81;100.00
22605;BME280;11469;49.024;8.246;2023-12-20T00:47:04;100593.97;;;4.83;100.00
22605;BME280;11469;49.024;8.246;2023-12-20T00:49:29;100588.13;;;4.84;100.00
22605;BME280;11469;49.024;8.246;2023-12-20T00:51:54;100587.16;;;4.89;100.00
22605;BME280;11469;49.024;8.246;2023-12-20T00:54:20;100587.28;;;4.84;100.00
22605;BME280;11469;49.024;8.246;2023-12-20T00:56:45;100605.47;;;4.90;100.00
22605;BME280;11469;49.024;8.246;2023-12-20T00:59:10;100596.00;;;4.91;100.00
22605;BME280;11469;49.024;8.246;2023-12-20T01:01:36;100591.25;;;4.91;100.00
22605;BME280;11469;49.024;8.246;2023-12-20T01:04:01;100593.53;;;4.89;100.00
22605;BME280;11469;49.024;8.246;2023-12-20T01:06:27;100589.13;;;4.88;100.00
22605;BME280;11469;49.024;8.246;2023-12-20T01:08:52;100590.94;;;4.93;100.00
22605;BME280;11469;49.024;8.246;2023-12-20T01:11:17;100587.03;;;4.94;100.00
22605;BME280;11469;49.024;8.246;2023-12-20T01:13:43;100583.75;;;4.92;100.00
22605;BME280;11469;49.024;8.246;2023-12-20T01:16:12;100576.88;;;4.89;100.00
22605;BME280;11469;49.024;8.246;2023-12-20T01:18:37;100573.44;;;4.92;100.00
22605;BME280;11469;49.024;8.246;2023-12-20T01:21:04;100575.91;;;4.94;100.00
22605;BME280;11469;49.024;8.246;2023-12-20T01:23:29;100575.59;;;4.95;100.00
22605;BME280;11469;49.024;8.246;2023-12-20T01:25:55;100570.69;;;4.92;100.00
22605;BME280;11469;49.024;8.246;2023-12-20T01:28:20;100562.03;;;4.94;100.00
22605;BME280;11469;49.024;8.246;2023-12-20T01:30:45;100564.47;;;4.95;100.00
22605;BME280;11469;49.024;8.246;2023-12-20T01:33:11;100553.19;;;4.92;100.00
22605;BME280;11469;49.024;8.246;2023-12-20T01:35:36;100566.44;;;4.95;100.00
22605;BME280;11469;49.024;8.246;2023-12-20T01:38:02;100558.44;;;4.93;100.00
22605;BME280;11469;49.024;8.246;2023-12-20T01:40:28;100565.63;;;4.94;100.00
22605;BME280;11469;49.024;8.246;2023-12-20T01:45:25;100552.88;;;4.93;100.00
22605;BME280;11469;49.024;8.246;2023-12-20T01:47:50;100554.00;;;4.92;100.00
22605;BME280;11469;49.024;8.246;2023-12-20T01:50:16;100545.69;;;4.92;100.00
22605;BME280;11469;49.024;8.246;2023-12-20T01:52:43;100550.41;;;4.92;100.00
22605;BME280;11469;49.024;8.246;2023-12-20T01:55:09;100555.16;;;4.91;100.00
22605;BME280;11469;49.024;8.246;2023-12-20T01:57:40;100551.22;;;4.92;100.00
22605;BME280;11469;49.024;8.246;2023-12-20T02:00:06;100551.22;;;4.92;100.00
22605;BME280;11469;49.024;8.246;2023-12-20T02:02:33;100544.53;;;4.93;100.00
22605;BME280;11469;49.024;8.246;2023-12-20T02:04:58;100552.56;;;4.95;100.00
22605;BME280;11469;49.024;8.246;2023-12-20T02:07:24;100549.31;;;5.02;100.00
22605;BME280;11469;49.024;8.246;2023-12-20T02:09:50;100546.19;;;4.94;100.00
22605;BME280;11469;49.024;8.246;2023-12-20T02:12:15;100543.25;;;4.99;100.00
22605;BME280;11469;49.024;8.246;2023-12-20T02:14:41;100549.94;;;4.98;100.00
22605;BME280;11469;49.024;8.246;2023-12-20T02:17:06;100552.41;;;5.00;100.00
22605;BME280;11469;49.024;8.246;2023-12-20T02:19:31;100545.25;;;5.08;100.00
22605;BME280;11469;49.024;8.246;2023-12-20T02:22:10;100546.72;;;5.05;100.00
22605;BME280;11469;49.024;8.246;2023-12-20T02:24:36;100550.31;;;5.06;100.00
22605;BME280;11469;49.024;8.246;2023-12-20T02:27:02;100549.31;;;5.02;100.00
22605;BME280;11469;49.024;8.246;2023-12-20T02:29:28;100548.50;;;5.01;100.00
22605;BME280;11469;49.024;8.246;2023-12-20T02:31:53;100549.16;;;5.07;100.00
22605;BME280;11469;49.024;8.246;2023-12-20T02:34:19;100557.00;;;5.05;100.00
22605;BME280;11469;49.024;8.246;2023-12-20T02:36:44;100553.41;;;5.04;100.00
22605;BME280;11469;49.024;8.246;2023-12-20T02:39:09;100559.28;;;5.03;100.00
22605;BME280;11469;49.024;8.246;2023-12-20T02:41:35;100552.78;;;5.07;100.00
22605;BME280;11469;49.024;8.246;2023-12-20T02:44:01;100559.16;;;5.08;100.00
22605;BME280;11469;49.024;8.246;2023-12-20T02:46:27;100560.94;;;5.04;100.00
22605;BME280;11469;49.024;8.246;2023-12-20T02:48:52;100562.44;;;5.10;100.00
22605;BME280;11469;49.024;8.246;2023-12-20T02:51:17;100561.28;;;5.11;100.00
22605;BME280;11469;49.024;8.246;2023-12-20T02:53:43;100567.97;;;5.10;100.00
22605;BME280;11469;49.024;8.246;2023-12-20T02:56:08;100564.69;;;5.08;100.00
22605;BME280;11469;49.024;8.246;2023-12-20T02:58:34;100559.31;;;5.11;100.00
22605;BME280;11469;49.024;8.246;2023-12-20T03:00:59;100577.31;;;5.14;100.00
22605;BME280;11469;49.024;8.246;2023-12-20T03:03:24;100566.03;;;5.10;100.00
22605;BME280;11469;49.024;8.246;2023-12-20T03:05:50;100555.22;;;5.09;100.00
22605;BME280;11469;49.024;8.246;2023-12-20T03:08:15;100558.00;;;5.09;100.00
22605;BME280;11469;49.024;8.246;2023-12-20T03:10:41;100565.84;;;5.07;100.00
22605;BME280;11469;49.024;8.246;2023-12-20T03:13:06;100570.44;;;5.11;100.00
22605;BME280;11469;49.024;8.246;2023-12-20T03:15:31;100562.59;;;5.13;100.00
22605;BME280;11469;49.024;8.246;2023-12-20T03:17:57;100572.72;;;5.09;100.00
22605;BME280;11469;49.024;8.246;2023-12-20T03:20:24;100564.06;;;5.11;100.00
22605;BME280;11469;49.024;8.246;2023-12-20T03:22:51;100568.47;;;5.12;100.00
22605;BME280;11469;49.024;8.246;2023-12-20T03:25:16;100565.69;;;5.12;100.00
22605;BME280;11469;49.024;8.246;2023-12-20T03:27:42;100565.69;;;5.12;100.00
22605;BME280;11469;49.024;8.246;2023-12-20T03:30:07;100576.66;;;5.17;100.00
22605;BME280;11469;49.024;8.246;2023-12-20T03:32:33;100574.84;;;5.12;100.00
22605;BME280;11469;49.024;8.246;2023-12-20T03:34:58;100571.75;;;5.14;100.00
22605;BME280;11469;49.024;8.246;2023-12-20T03:37:24;100576.16;;;5.15;100.00
22605;BME280;11469;49.024;8.246;2023-12-20T03:39:49;100568.34;;;5.17;100.00
22605;BME280;11469;49.024;8.246;2023-12-20T03:42:14;100566.19;;;5.14;100.00
22605;BME280;11469;49.024;8.246;2023-12-20T03:44:40;100558.69;;;5.14;100.00
22605;BME280;11469;49.024;8.246;2023-12-20T03:47:06;100551.50;;;5.13;100.00
22605;BME280;11469;49.024;8.246;2023-12-20T03:49:31;100557.22;;;5.17;100.00
22605;BME280;11469;49.024;8.246;2023-12-20T03:51:57;100569.97;;;5.18;100.00
22605;BME280;11469;49.024;8.246;2023-12-20T03:54:22;100581.91;;;5.27;100.00
22605;BME280;11469;49.024;8.246;2023-12-20T03:56:47;100574.53;;;5.22;100.00
22605;BME280;11469;49.024;8.246;2023-12-20T03:59:13;100576.34;;;5.18;100.00
22605;BME280;11469;49.024;8.246;2023-12-20T04:01:43;100575.69;;;5.21;100.00
22605;BME280;11469;49.024;8.246;2023-12-20T04:04:08;100581.91;;;5.18;100.00
22605;BME280;11469;49.024;8.246;2023-12-20T04:06:34;100581.09;;;5.18;100.00
22605;BME280;11469;49.024;8.246;2023-12-20T04:08:59;100584.69;;;5.18;100.00
22605;BME280;11469;49.024;8.246;2023-12-20T04:11:25;100579.78;;;5.24;100.00
22605;BME280;11469;49.024;8.246;2023-12-20T04:13:50;100582.06;;;5.22;100.00
22605;BME280;11469;49.024;8.246;2023-12-20T04:16:15;100574.84;;;5.21;100.00
22605;BME280;11469;49.024;8.246;2023-12-20T04:18:41;100591.88;;;5.19;100.00
22605;BME280;11469;49.024;8.246;2023-12-20T04:21:06;100590.06;;;5.23;100.00
22605;BME280;11469;49.024;8.246;2023-12-20T04:23:32;100586.78;;;5.21;100.00
22605;BME280;11469;49.024;8.246;2023-12-20T04:25:57;100594.50;;;5.24;100.00
22605;BME280;11469;49.024;8.246;2023-12-20T04:28:23;100595.94;;;5.22;100.00
22605;BME280;11469;49.024;8.246;2023-12-20T04:30:48;100599.72;;;5.26;100.00
22605;BME280;11469;49.024;8.246;2023-12-20T04:33:14;100610.69;;;5.31;100.00
22605;BME280;11469;49.024;8.246;2023-12-20T04:35:39;100608.56;;;5.28;100.00
22605;BME280;11469;49.024;8.246;2023-12-20T04:38:06;100615.44;;;5.30;100.00
22605;BME280;11469;49.024;8.246;2023-12-20T04:40:31;100617.22;;;5.26;100.00
22605;BME280;11469;49.024;8.246;2023-12-20T04:42:57;100608.25;;;5.29;100.00
22605;BME280;11469;49.024;8.246;2023-12-20T04:45:22;100601.38;;;5.27;100.00
22605;BME280;11469;49.024;8.246;2023-12-20T04:47:50;100609.06;;;5.30;100.00
22605;BME280;11469;49.024;8.246;2023-12-20T04:50:15;100617.41;;;5.30;100.00
22605;BME280;11469;49.024;8.246;2023-12-20T04:52:41;100611.53;;;5.31;100.00
22605;BME280;11469;49.024;8.246;2023-12-20T04:55:07;100623.47;;;5.32;100.00
22605;BME280;11469;49.024;8.246;2023-12-20T04:57:34;100627.06;;;5.32;100.00
22605;BME280;11469;49.024;8.246;2023-12-20T04:59:59;100616.44;;;5.34;100.00
22605;BME280;11469;49.024;8.246;2023-12-20T05:02:25;100626.75;;;5.34;100.00
22605;BME280;11469;49.024;8.246;2023-12-20T05:04:50;100622.97;;;5.30;100.00
22605;BME280;11469;49.024;8.246;2023-12-20T05:07:16;100625.41;;;5.31;100.00
22605;BME280;11469;49.024;8.246;2023-12-20T05:09:41;100624.28;;;5.32;100.00
22605;BME280;11469;49.024;8.246;2023-12-20T05:12:07;100626.25;;;5.32;100.00
22605;BME280;11469;49.024;8.246;2023-12-20T05:14:32;100626.88;;;5.29;100.00
22605;BME280;11469;49.024;8.246;2023-12-20T05:16:58;100631.13;;;5.26;100.00
22605;BME280;11469;49.024;8.246;2023-12-20T05:19:24;100635.03;;;5.25;100.00
22605;BME280;11469;49.024;8.246;2023-12-20T05:21:50;100630.44;;;5.21;100.00
22605;BME280;11469;49.024;8.246;2023-12-20T05:24:15;100628.66;;;5.16;100.00
22605;BME280;11469;49.024;8.246;2023-12-20T05:26:40;100643.84;;;5.19;100.00
22605;BME280;11469;49.024;8.246;2023-12-20T05:29:06;100640.09;;;5.15;100.00
22605;BME280;11469;49.024;8.246;2023-12-20T05:31:31;100644.50;;;5.16;100.00
22605;BME280;11469;49.024;8.246;2023-12-20T05:33:57;100648.41;;;5.15;100.00
22605;BME280;11469;49.024;8.246;2023-12-20T05:36:23;100648.59;;;5.18;100.00
22605;BME280;11469;49.024;8.246;2023-12-20T05:38:48;100651.84;;;5.20;100.00
22605;BME280;11469;49.024;8.246;2023-12-20T05:41:14;100653.47;;;5.21;100.00
22605;BME280;11469;49.024;8.246;2023-12-20T05:43:39;100647.28;;;5.24;100.00
22605;BME280;11469;49.024;8.246;2023-12-20T05:46:05;100653.66;;;5.25;100.00
22605;BME280;11469;49.024;8.246;2023-12-20T05:48:30;100652.53;;;5.26;100.00
22605;BME280;11469;49.024;8.246;2023-12-20T05:50:56;100654.66;;;5.29;100.00
22605;BME280;11469;49.024;8.246;2023-12-20T05:53:21;100644.72;;;5.37;100.00
22605;BME280;11469;49.024;8.246;2023-12-20T05:55:46;100642.59;;;5.33;100.00
22605;BME280;11469;49.024;8.246;2023-12-20T05:58:12;100643.72;;;5.32;100.00
22605;BME280;11469;49.024;8.246;2023-12-20T06:00:38;100659.13;;;5.39;100.00
22605;BME280;11469;49.024;8.246;2023-12-20T06:03:03;100663.19;;;5.32;100.00
22605;BME280;11469;49.024;8.246;2023-12-20T06:05:30;100677.22;;;5.27;100.00
22605;BME280;11469;49.024;8.246;2023-12-20T06:07:56;100689.34;;;5.31;100.00
22605;BME280;11469;49.024;8.246;2023-12-20T06:10:26;100692.56;;;5.25;100.00
22605;BME280;11469;49.024;8.246;2023-12-20T06:12:52;100690.28;;;5.27;100.00
22605;BME280;11469;49.024;8.246;2023-12-20T06:15:17;100695.53;;;5.28;100.00
22605;BME280;11469;49.024;8.246;2023-12-20T06:17:42;100695.53;;;5.20;100.00
22605;BME280;11469;49.024;8.246;2023-12-20T06:20:08;100706.44;;;5.16;100.00
22605;BME280;11469;49.024;8.246;2023-12-20T06:22:34;100702.84;;;5.16;100.00
22605;BME280;11469;49.024;8.246;2023-12-20T06:25:00;100713.66;;;5.17;100.00
22605;BME280;11469;49.024;8.246;2023-12-20T06:27:25;100725.84;;;5.08;100.00
22605;BME280;11469;49.024;8.246;2023-12-20T06:29:51;100725.97;;;5.03;100.00
22605;BME280;11469;49.024;8.246;2023-12-20T06:32:16;100726.78;;;5.03;100.00
22605;BME280;11469;49.024;8.246;2023-12-20T06:34:41;100732.47;;;4.98;100.00
22605;BME280;11469;49.024;8.246;2023-12-20T06:37:07;100730.00;;;4.96;100.00
22605;BME280;11469;49.024;8.246;2023-12-20T06:39:32;100740.75;;;4.89;100.00
22605;BME280;11469;49.024;8.246;2023-12-20T06:41:59;100748.25;;;4.89;100.00
22605;BME280;11469;49.024;8.246;2023-12-20T06:44:25;100740.53;;;4.86;100.00
22605;BME280;11469;49.024;8.246;2023-12-20T06:46:50;100750.31;;;4.83;100.00
22605;BME280;11469;49.024;8.246;2023-12-20T06:49:15;100758.16;;;4.81;100.00
22605;BME280;11469;49.024;8.246;2023-12-20T06:51:41;100758.78;;;4.78;100.00
22605;BME280;11469;49.024;8.246;2023-12-20T06:54:06;100759.09;;;4.77;100.00
22605;BME280;11469;49.024;8.246;2023-12-20T06:56:32;100767.63;;;4.80;100.00
22605;BME280;11469;49.024;8.246;2023-12-20T06:58:57;100763.84;;;4.76;100.00
22605;BME280;11469;49.024;8.246;2023-12-20T07:01:23;100767.44;;;4.77;100.00
22605;BME280;11469;49.024;8.246;2023-12-20T07:03:48;100780.28;;;4.73;100.00
22605;BME280;11469;49.024;8.246;2023-12-20T07:06:14;100774.56;;;4.69;100.00
22605;BME280;11469;49.024;8.246;2023-12-20T07:08:41;100788.78;;;4.68;100.00
22605;BME280;11469;49.024;8.246;2023-12-20T07:11:07;100790.34;;;4.60;100.00
22605;BME280;11469;49.024;8.246;2023-12-20T07:13:32;100781.50;;;4.58;100.00
22605;BME280;11469;49.024;8.246;2023-12-20T07:15:57;100787.88;;;4.58;100.00
22605;BME280;11469;49.024;8.246;2023-12-20T07:18:23;100793.41;;;4.58;100.00
22605;BME280;11469;49.024;8.246;2023-12-20T07:20:48;100789.50;;;4.59;100.00
22605;BME280;11469;49.024;8.246;2023-12-20T07:23:14;100801.75;;;4.58;100.00
22605;BME280;11469;49.024;8.246;2023-12-20T07:25:39;100801.75;;;4.58;100.00
22605;BME280;11469;49.024;8.246;2023-12-20T07:28:05;100807.53;;;4.48;100.00
22605;BME280;11469;49.024;8.246;2023-12-20T07:30:30;100801.06;;;4.39;100.00
22605;BME280;11469;49.024;8.246;2023-12-20T07:32:56;100804.03;;;4.29;100.00
22605;BME280;11469;49.024;8.246;2023-12-20T07:35:23;100803.34;;;4.23;100.00
22605;BME280;11469;49.024;8.246;2023-12-20T07:37:48;100806.13;;;4.23;100.00
22605;BME280;11469;49.024;8.246;2023-12-20T07:40:13;100811.47;;;4.20;100.00
22605;BME280;11469;49.024;8.246;2023-12-20T07:42:39;100804.06;;;4.15;100.00
22605;BME280;11469;49.024;8.246;2023-12-20T07:45:04;100803.88;;;4.12;100.00
22605;BME280;11469;49.024;8.246;2023-12-20T07:47:30;100812.19;;;4.12;100.00
22605;BME280;11469;49.024;8.246;2023-12-20T07:49:55;100810.34;;;4.07;100.00
22605;BME280;11469;49.024;8.246;2023-12-20T07:52:21;100811.28;;;4.03;100.00
22605;BME280;11469;49.024;8.246;2023-12-20T07:54:47;100819.38;;;3.85;100.00
22605;BME280;11469;49.024;8.246;2023-12-20T07:57:13;100838.25;;;3.83;100.00
22605;BME280;11469;49.024;8.246;2023-12-20T07:59:38;100839.59;;;3.86;100.00
22605;BME280;11469;49.024;8.246;2023-12-20T08:02:04;100837.13;;;3.84;100.00
22605;BME280;11469;49.024;8.246;2023-12-20T08:04:29;100845.66;;;3.88;100.00
22605;BME280;11469;49.024;8.246;2023-12-20T08:06:55;100838.69;;;3.90;100.00
22605;BME280;11469;49.024;8.246;2023-12-20T08:09:20;100834.66;;;3.83;100.00
22605;BME280;11469;49.024;8.246;2023-12-20T08:11:49;100842.28;;;3.91;100.00
22605;BME280;11469;49.024;8.246;2023-12-20T08:14:15;100842.19;;;3.96;100.00
22605;BME280;11469;49.024;8.246;2023-12-20T08:16:41;100834.16;;;3.94;100.00
22605;BME280;11469;49.024;8.246;2023-12-20T08:19:06;100837.75;;;3.95;100.00
22605;BME280;11469;49.024;8.246;2023-12-20T08:21:32;100845.47;;;3.98;100.00
22605;BME280;11469;49.024;8.246;2023-12-20T08:23:57;100846.28;;;3.98;100.00
22605;BME280;11469;49.024;8.246;2023-12-20T08:26:22;100848.56;;;3.96;100.00
22605;BME280;11469;49.024;8.246;2023-12-20T08:28:49;100841.34;;;3.95;100.00
22605;BME280;11469;49.024;8.246;2023-12-20T08:31:15;100841.56;;;3.99;100.00
22605;BME280;11469;49.024;8.246;2023-12-20T08:33:46;100846.81;;;4.00;100.00
22605;BME280;11469;49.024;8.246;2023-12-20T08:36:12;100851.97;;;4.07;100.00
22605;BME280;11469;49.024;8.246;2023-12-20T08:38:38;100870.75;;;4.10;100.00
22605;BME280;11469;49.024;8.246;2023-12-20T08:41:03;100866.44;;;4.18;100.00
22605;BME280;11469;49.024;8.246;2023-12-20T08:43:31;100867.66;;;4.25;100.00
22605;BME280;11469;49.024;8.246;2023-12-20T08:45:57;100870.03;;;4.32;100.00
22605;BME280;11469;49.024;8.246;2023-12-20T08:48:22;100864.56;;;4.41;100.00
22605;BME280;11469;49.024;8.246;2023-12-20T08:50:47;100870.34;;;4.44;100.00
22605;BME280;11469;49.024;8.246;2023-12-20T08:53:15;100856.44;;;4.58;100.00
22605;BME280;11469;49.024;8.246;2023-12-20T08:55:41;100863.22;;;4.65;100.00
22605;BME280;11469;49.024;8.246;2023-12-20T08:58:07;100855.78;;;4.75;100.00
22605;BME280;11469;49.024;8.246;2023-12-20T09:00:34;100857.31;;;4.81;100.00
22605;BME280;11469;49.024;8.246;2023-12-20T09:03:00;100860.19;;;4.89;100.00
22605;BME280;11469;49.024;8.246;2023-12-20T09:05:26;100851.00;;;5.03;100.00
22605;BME280;11469;49.024;8.246;2023-12-20T09:07:51;100851.38;;;5.10;100.00
22605;BME280;11469;49.024;8.246;2023-12-20T09:10:17;100848.78;;;5.13;100.00
22605;BME280;11469;49.024;8.246;2023-12-20T09:12:47;100845.38;;;5.16;100.00
22605;BME280;11469;49.024;8.246;2023-12-20T09:15:13;100847.97;;;5.13;100.00
22605;BME280;11469;49.024;8.246;2023-12-20T09:17:38;100840.19;;;5.23;100.00
22605;BME280;11469;49.024;8.246;2023-12-20T09:20:05;100839.69;;;5.21;100.00
22605;BME280;11469;49.024;8.246;2023-12-20T09:22:33;100837.72;;;5.22;100.00
22605;BME280;11469;49.024;8.246;2023-12-20T09:24:59;100840.81;;;5.20;100.00
22605;BME280;11469;49.024;8.246;2023-12-20T09:27:24;100840.03;;;5.20;100.00
22605;BME280;11469;49.024;8.246;2023-12-20T09:29:49;100839.50;;;5.18;100.00
22605;BME280;11469;49.024;8.246;2023-12-20T09:32:15;100838.53;;;5.22;100.00
22605;BME280;11469;49.024;8.246;2023-12-20T09:34:40;100830.78;;;5.33;100.00
22605;BME280;11469;49.024;8.246;2023-12-20T09:37:07;100844.25;;;5.40;100.00
22605;BME280;11469;49.024;8.246;2023-12-20T09:39:33;100840.00;;;5.42;100.00
22605;BME280;11469;49.024;8.246;2023-12-20T09:42:03;100840.56;;;5.53;100.00
22605;BME280;11469;49.024;8.246;2023-12-20T09:44:30;100850.88;;;5.52;100.00
22605;BME280;11469;49.024;8.246;2023-12-20T09:46:56;100855.72;;;5.47;100.00
22605;BME280;11469;49.024;8.246;2023-12-20T09:49:22;100857.06;;;5.49;100.00
22605;BME280;11469;49.024;8.246;2023-12-20T09:51:50;100848.91;;;5.53;100.00
22605;BME280;11469;49.024;8.246;2023-12-20T09:54:18;100850.25;;;5.55;100.00
22605;BME280;11469;49.024;8.246;2023-12-20T09:56:44;100854.84;;;5.60;100.00
22605;BME280;11469;49.024;8.246;2023-12-20T09:59:10;100863.69;;;5.62;100.00
22605;BME280;11469;49.024;8.246;2023-12-20T10:01:38;100862.06;;;5.70;100.00
22605;BME280;11469;49.024;8.246;2023-12-20T10:04:09;100861.44;;;5.73;100.00
22605;BME280;11469;49.024;8.246;2023-12-20T10:06:43;100861.94;;;5.75;100.00
22605;BME280;11469;49.024;8.246;2023-12-20T10:09:10;100865.25;;;5.77;100.00
22605;BME280;11469;49.024;8.246;2023-12-20T10:11:37;100855.44;;;5.79;100.00
22605;BME280;11469;49.024;8.246;2023-12-20T10:14:03;100847.78;;;5.85;100.00
22605;BME280;11469;49.024;8.246;2023-12-20T10:16:29;100841.91;;;5.86;100.00
22605;BME280;11469;49.024;8.246;2023-12-20T10:18:55;100846.94;;;5.84;100.00
22605;BME280;11469;49.024;8.246;2023-12-20T10:21:21;100842.53;;;5.83;100.00
22605;BME280;11469;49.024;8.246;2023-12-20T10:23:51;100850.75;;;5.88;100.00
22605;BME280;11469;49.024;8.246;2023-12-20T10:26:26;100839.94;;;5.87;100.00
22605;BME280;11469;49.024;8.246;2023-12-20T10:28:53;100843.53;;;5.87;100.00
22605;BME280;11469;49.024;8.246;2023-12-20T10:31:32;100840.16;;;5.90;100.00
22605;BME280;11469;49.024;8.246;2023-12-20T10:33:59;100836.53;;;5.90;100.00
22605;BME280;11469;49.024;8.246;2023-12-20T10:36:26;100836.72;;;5.93;100.00
22605;BME280;11469;49.024;8.246;2023-12-20T10:38:53;100833.50;;;6.00;100.00
22605;BME280;11469;49.024;8.246;2023-12-20T10:41:27;100827.78;;;6.05;100.00
22605;BME280;11469;49.024;8.246;2023-12-20T10:43:56;100817.53;;;6.31;100.00
22605;BME280;11469;49.024;8.246;2023-12-20T10:46:21;100810.88;;;6.50;100.00
22605;BME280;11469;49.024;8.246;2023-12-20T10:48:48;100810.41;;;6.56;100.00
22605;BME280;11469;49.024;8.246;2023-12-20T10:51:17;100829.38;;;6.46;100.00
22605;BME280;11469;49.024;8.246;2023-12-20T10:53:44;100821.97;;;6.32;100.00
22605;BME280;11469;49.024;8.246;2023-12-20T10:56:15;100816.41;;;6.32;100.00
22605;BME280;11469;49.024;8.246;2023-12-20T10:58:42;100815.91;;;6.30;100.00
22605;BME280;11469;49.024;8.246;2023-12-20T11:01:12;100808.69;;;6.29;100.00
22605;BME280;11469;49.024;8.246;2023-12-20T11:03:38;100807.56;;;6.30;100.00
22605;BME280;11469;49.024;8.246;2023-12-20T11:06:29;100800.03;;;6.31;100.00
22605;BME280;11469;49.024;8.246;2023-12-20T11:09:16;100800.19;;;6.35;100.00
22605;BME280;11469;49.024;8.246;2023-12-20T11:12:22;100812.16;;;6.35;100.00
22605;BME280;11469;49.024;8.246;2023-12-20T11:14:54;100810.03;;;6.41;100.00
22605;BME280;11469;49.024;8.246;2023-12-20T11:17:22;100812.00;;;6.40;100.00
22605;BME280;11469;49.024;8.246;2023-12-20T11:22:17;100802.34;;;6.38;100.00
22605;BME280;11469;49.024;8.246;2023-12-20T11:24:44;100801.19;;;6.39;100.00
22605;BME280;11469;49.024;8.246;2023-12-20T11:27:09;100801.69;;;6.41;100.00
22605;BME280;11469;49.024;8.246;2023-12-20T11:29:35;100794.31;;;6.36;100.00
22605;BME280;11469;49.024;8.246;2023-12-20T11:32:02;100807.56;;;6.39;100.00
22605;BME280;11469;49.024;8.246;2023-12-20T11:34:32;100800.38;;;6.47;100.00
22605;BME280;11469;49.024;8.246;2023-12-20T11:36:59;100797.09;;;6.45;100.00
22605;BME280;11469;49.024;8.246;2023-12-20T11:39:26;100796.97;;;6.50;100.00
22605;BME280;11469;49.024;8.246;2023-12-20T11:41:54;100786.63;;;6.42;100.00
22605;BME280;11469;49.024;8.246;2023-12-20T11:44:19;100783.84;;;6.42;100.00
22605;BME280;11469;49.024;8.246;2023-12-20T11:46:46;100777.59;;;6.36;100.00
22605;BME280;11469;49.024;8.246;2023-12-20T11:49:11;100785.44;;;6.34;100.00
22605;BME280;11469;49.024;8.246;2023-12-20T11:51:40;100780.72;;;6.35;100.00
22605;BME280;11469;49.024;8.246;2023-12-20T11:54:06;100779.41;;;6.41;100.00
22605;BME280;11469;49.024;8.246;2023-12-20T11:56:31;100788.41;;;6.38;100.00
22605;BME280;11469;49.024;8.246;2023-12-20T11:58:57;100786.13;;;6.40;100.00
22605;BME280;11469;49.024;8.246;2023-12-20T12:01:22;100791.03;;;6.43;100.00
22605;BME280;11469;49.024;8.246;2023-12-20T12:03:47;100782.53;;;6.39;100.00
22605;BME280;11469;49.024;8.246;2023-12-20T12:06:13;100787.63;;;6.46;100.00
22605;BME280;11469;49.024;8.246;2023-12-20T12:08:38;100776.31;;;6.51;100.00
22605;BME280;11469;49.024;8.246;2023-12-20T12:11:04;100784.34;;;6.52;100.00
22605;BME280;11469;49.024;8.246;2023-12-20T12:13:29;100772.72;;;6.50;100.00
22605;BME280;11469;49.024;8.246;2023-12-20T12:15:55;100777.31;;;6.55;100.00
22605;BME280;11469;49.024;8.246;2023-12-20T12:18:20;100774.03;;;6.53;100.00
22605;BME280;11469;49.024;8.246;2023-12-20T12:20:46;100777.13;;;6.51;100.00
22605;BME280;11469;49.024;8.246;2023-12-20T12:23:11;100768.63;;;6.56;100.00
22605;BME280;11469;49.024;8.246;2023-12-20T12:25:37;100781.25;;;6.54;100.00
22605;BME280;11469;49.024;8.246;2023-12-20T12:28:02;100767.16;;;6.59;100.00
22605;BME280;11469;49.024;8.246;2023-12-20T12:30:28;100772.06;;;6.53;100.00
22605;BME280;11469;49.024;8.246;2023-12-20T12:32:55;100768.63;;;6.48;100.00
22605;BME280;11469;49.024;8.246;2023-12-20T12:35:22;100772.53;;;6.47;100.00
22605;BME280;11469;49.024;8.246;2023-12-20T12:37:47;100773.19;;;6.44;100.00
22605;BME280;11469;49.024;8.246;2023-12-20T12:40:14;100766.16;;;6.46;100.00
22605;BME280;11469;49.024;8.246;2023-12-20T12:42:42;100758.28;;;6.40;100.00
22605;BME280;11469;49.024;8.246;2023-12-20T12:45:09;100763.03;;;6.48;100.00
22605;BME280;11469;49.024;8.246;2023-12-20T12:47:34;100762.22;;;6.39;100.00
22605;BME280;11469;49.024;8.246;2023-12-20T12:50:01;100750.75;;;6.40;100.00